Time;durP1;ratioP1;P1;durP2;ratioP2;P2;SDS_P1;SDS_P2;PMS_P1;PMS_P2;Temp;Humidity;BMP_temperature;BMP_pressure;BME280_temperature;BME280_humidity;BME280_pressure;Samples;Min_cycle;Max_cycle;Signal;HPM_P1;HPM_P2
2023/12/12 00:00:57;;;;;;;13.98;3.65;;;;;;;-144.05;76.90;56989.00;5002049;28;20102;-83
2023/12/12 00:03:23;;;;;;;10.68;3.70;;;;;;;-144.05;76.89;57008.13;4992240;28;20097;-83
2023/12/12 00:05:49;;;;;;;9.38;2.80;;;;;;;-144.05;76.74;57006.00;4993732;28;20092;-82
2023/12/12 00:08:15;;;;;;;9.98;2.95;;;;;;;-144.05;76.42;57012.38;4993357;28;20037;-83
2023/12/12 00:10:42;;;;;;;12.38;3.85;;;;;;;-144.05;76.17;57018.75;4992690;28;20022;-83
2023/12/12 00:13:08;;;;;;;10.57;3.40;;;;;;;-144.05;76.46;57014.50;4992224;28;20033;-84
2023/12/12 00:15:34;;;;;;;9.18;3.20;;;;;;;-144.05;75.89;56997.50;4992225;28;20026;-83
2023/12/12 00:18:00;;;;;;;13.45;3.42;;;;;;;-144.05;76.24;56995.38;4991877;28;20027;-84
2023/12/12 00:20:27;;;;;;;13.50;3.05;;;;;;;-144.05;75.87;57014.50;4992104;28;20026;-86
2023/12/12 00:22:53;;;;;;;9.48;3.47;;;;;;;-144.05;75.74;57001.75;4992192;28;20073;-85
2023/12/12 00:25:20;;;;;;;11.43;3.45;;;;;;;-144.05;75.57;56984.78;4992130;28;20054;-84
2023/12/12 00:27:46;;;;;;;15.10;3.58;;;;;;;-144.05;75.75;57014.50;4992046;28;20473;-83
2023/12/12 00:30:13;;;;;;;9.45;2.75;;;;;;;-144.05;75.31;57020.88;4993011;28;20046;-86
2023/12/12 00:32:39;;;;;;;11.45;2.63;;;;;;;-144.05;75.23;56999.63;4993040;28;20346;-83
2023/12/12 00:35:07;;;;;;;5.38;2.75;;;;;;;-144.05;74.90;56999.63;5008136;28;20041;-81
2023/12/12 00:37:33;;;;;;;8.80;3.03;;;;;;;-144.05;75.30;56997.50;5004242;28;20094;-83
2023/12/12 00:40:00;;;;;;;9.75;2.72;;;;;;;-144.05;75.10;57014.50;4984695;28;20066;-80
2023/12/12 00:42:26;;;;;;;12.70;2.65;;;;;;;-144.05;74.48;57006.00;4992549;28;20030;-83
2023/12/12 00:44:52;;;;;;;17.10;4.60;;;;;;;-144.05;74.76;57001.75;5007527;28;20037;-84
2023/12/12 00:47:18;;;;;;;6.47;2.25;;;;;;;-144.05;74.75;57012.38;4991168;28;20519;-84
2023/12/12 00:49:45;;;;;;;10.52;2.95;;;;;;;-144.05;74.45;57012.38;4992097;28;20036;-84
2023/12/12 00:52:11;;;;;;;8.25;2.45;;;;;;;-144.05;74.14;57031.50;4991291;28;20062;-86
2023/12/12 00:54:37;;;;;;;9.32;2.70;;;;;;;-144.05;74.09;57018.75;4992200;28;20125;-85
2023/12/12 00:57:03;;;;;;;10.90;3.05;;;;;;;-144.05;73.41;57008.13;4992004;28;20168;-86
2023/12/12 00:59:30;;;;;;;6.47;2.10;;;;;;;-144.05;73.54;56991.13;4992514;28;20378;-83
2023/12/12 01:01:56;;;;;;;7.38;1.90;;;;;;;-144.05;73.92;57012.38;4992503;28;20456;-84
2023/12/12 01:04:22;;;;;;;8.07;2.25;;;;;;;-144.05;74.07;57018.75;4992328;28;20038;-84
2023/12/12 01:06:48;;;;;;;12.57;2.88;;;;;;;-144.05;73.61;56995.38;4990650;28;20038;-83
2023/12/12 01:09:15;;;;;;;8.73;2.63;;;;;;;-144.05;73.74;57020.88;4991967;28;20436;-85
2023/12/12 01:11:41;;;;;;;10.07;2.60;;;;;;;-144.05;73.20;57006.00;5007599;28;20030;-84
2023/12/12 01:14:07;;;;;;;5.70;2.17;;;;;;;-144.05;73.27;57001.75;4992301;28;20548;-84
2023/12/12 01:16:33;;;;;;;9.40;2.38;;;;;;;-144.05;73.05;56999.63;4992379;28;20462;-85
2023/12/12 01:19:00;;;;;;;10.02;2.15;;;;;;;-144.05;73.46;56980.53;5011322;28;20022;-85
2023/12/12 01:21:27;;;;;;;6.70;2.50;;;;;;;-144.05;73.18;57010.25;5008329;28;20130;-82
2023/12/12 01:23:55;;;;;;;6.85;2.28;;;9.00;99.90;;;-144.05;73.29;56989.00;5011525;28;20069;-85
2023/12/12 01:26:23;;;;;;;9.30;2.08;;;;;;;-144.05;73.43;56997.50;5011802;28;20133;-85
2023/12/12 01:28:51;;;;;;;10.75;2.45;;;8.30;99.90;;;-144.05;73.48;57001.75;4996622;28;20057;-83
2023/12/12 01:31:18;;;;;;;8.13;2.03;;;8.90;99.90;;;-144.05;73.67;56989.00;4997184;28;20037;-85
2023/12/12 01:33:45;;;;;;;7.70;2.40;;;;;;;-144.05;73.50;57008.13;5016323;28;20021;-83
2023/12/12 01:36:11;;;;;;;6.30;2.13;;;;;;;-144.05;73.38;57014.50;5017003;28;20106;-84
2023/12/12 01:38:38;;;;;;;12.70;2.20;;;;;;;-144.05;73.30;57023.00;5015972;28;20042;-82
2023/12/12 01:41:04;;;;;;;9.98;3.30;;;;;;;-144.05;73.51;57014.50;5001977;28;20481;-84
2023/12/12 01:43:33;;;;;;;9.35;2.00;;;;;;;-144.05;73.13;56989.00;5007270;28;20141;-84
2023/12/12 01:46:11;;;;;;;9.93;2.50;;;;;;;-144.05;73.49;56986.91;5003259;28;20030;-84
2023/12/12 01:48:37;;;;;;;12.98;2.88;;;;;;;-144.05;73.32;57001.75;5018220;28;20022;-83
2023/12/12 01:51:05;;;;;;;5.97;2.63;;;;;;;-144.05;73.03;56999.63;4998665;28;20126;-84
2023/12/12 01:53:41;;;;;;;10.20;1.95;;;;;;;-144.05;73.12;57006.00;5006879;28;20033;-83
2023/12/12 01:56:09;;;;;;;7.50;2.00;;;;;;;-144.05;72.98;56976.28;4979677;28;20118;-82
2023/12/12 01:58:40;;;;;;;6.75;1.92;;;;;;;-144.05;72.90;57012.38;4995598;28;20448;-82
2023/12/12 02:01:07;;;;;;;11.15;2.97;;;;;;;-144.05;72.61;57001.75;5002692;28;20027;-84
2023/12/12 02:03:37;;;;;;;7.80;2.28;;;10.30;99.90;;;-144.05;72.20;57003.88;4994167;28;20409;-82
2023/12/12 02:06:05;;;;;;;5.88;2.28;;;;;;;-144.05;72.48;57012.38;5003077;28;20030;-83
2023/12/12 02:08:32;;;;;;;9.05;2.05;;;;;;;-144.05;72.48;56999.63;5010528;28;20022;-83
2023/12/12 02:10:58;;;;;;;9.50;2.08;;;;;;;-144.05;73.02;57023.00;5010396;28;20113;-84
2023/12/12 02:13:24;;;;;;;15.05;2.67;;;;;;;-144.05;73.07;57014.50;4995263;28;20030;-83
2023/12/12 02:15:51;;;;;;;14.45;2.70;;;;;;;-144.05;73.06;57016.63;4995150;28;20034;-85
2023/12/12 02:18:17;;;;;;;9.73;2.30;;;;;;;-144.05;73.00;56995.38;5009989;28;20034;-84
2023/12/12 02:20:43;;;;;;;7.97;2.42;;;;;;;-144.05;73.34;56991.13;5007946;28;20101;-84
2023/12/12 02:23:10;;;;;;;11.00;2.53;;;8.30;99.90;;;-144.05;73.18;57006.00;4993731;28;20042;-83
2023/12/12 02:25:37;;;;;;;11.77;3.13;;;;;;;-144.05;73.55;56986.91;4995224;28;20026;-84
2023/12/12 02:28:06;;;;;;;12.05;3.20;;;;;;;-144.05;73.16;57023.00;4994682;28;20042;-82
2023/12/12 02:30:35;;;;;;;17.40;3.10;;;9.40;99.90;;;-144.05;73.74;56991.13;4994797;28;20393;-84
2023/12/12 02:33:02;;;;;;;13.52;3.25;;;;;;;-144.05;73.36;57025.13;5002007;28;20030;-84
2023/12/12 02:35:29;;;;;;;15.45;3.38;;;;;;;-144.05;73.65;56986.91;5010247;28;20026;-83
2023/12/12 02:37:55;;;;;;;10.93;2.47;;;;;;;-144.05;73.42;56999.63;4994492;28;20037;-84
2023/12/12 02:40:22;;;;;;;10.80;2.72;;;;;;;-144.05;73.32;56995.38;4995194;28;20065;-83
2023/12/12 02:42:50;;;;;;;9.25;2.85;;;;;;;-144.05;73.47;56991.13;4993601;28;20030;-82
2023/12/12 02:45:16;;;;;;;9.52;2.00;;;;;;;-144.05;73.30;57014.50;5009720;28;20499;-84
2023/12/12 02:47:43;;;;;;;12.85;2.63;;;;;;;-144.05;73.62;56993.25;4995041;28;20037;-84
2023/12/12 02:50:09;;;;;;;10.07;2.60;;;;;;;-144.05;73.66;57012.38;5008839;28;20124;-83
2023/12/12 02:52:36;;;;;;;12.88;2.40;;;;;;;-144.05;74.19;57010.25;5006044;28;20097;-84
2023/12/12 02:55:02;;;;;;;9.15;2.30;;;;;;;-144.05;73.97;56995.38;5009201;28;20080;-84
2023/12/12 02:57:28;;;;;;;13.77;3.80;;;;;;;-144.05;73.94;56984.78;4992679;28;20125;-83
2023/12/12 02:59:55;;;;;;;16.60;4.85;;;;;;;-144.05;74.39;57029.38;4992696;28;20096;-84
2023/12/12 03:02:21;;;;;;;9.50;2.30;;;;;;;-144.05;74.09;57012.38;4994408;28;20034;-82
2023/12/12 03:04:47;;;;;;;13.88;2.83;;;;;;;-144.05;74.74;57012.38;4992696;28;20031;-84
2023/12/12 03:07:14;;;;;;;8.82;2.17;;;;;;;-144.05;73.80;57040.00;4994454;28;20022;-84
2023/12/12 03:09:40;;;;;;;10.65;2.20;;;;;;;-144.05;73.67;56976.28;4994806;28;20034;-86
2023/12/12 03:12:07;;;;;;;9.95;2.63;;;;;;;-144.05;73.71;57014.50;5001025;28;20402;-83
2023/12/12 03:14:36;;;;;;;17.83;2.70;;;;;;;-144.05;73.86;57029.38;5000673;28;20041;-83
2023/12/12 03:17:03;;;;;;;14.10;3.13;;;;;;;-144.05;74.31;56999.63;4984817;28;20027;-83
2023/12/12 03:19:29;;;;;;;13.70;2.92;;;;;;;-144.05;74.29;56991.13;4993656;28;20034;-84
2023/12/12 03:21:56;;;;;;;9.00;2.35;;;;;;;-144.05;74.58;57014.50;4993698;28;20097;-85
2023/12/12 03:24:22;;;;;;;13.13;3.00;;;;;;;-144.05;74.36;57010.25;4992586;28;20054;-84
2023/12/12 03:26:48;;;;;;;10.02;2.42;;;;;;;-144.05;74.13;57020.88;5008850;28;20088;-84
2023/12/12 03:29:15;;;;;;;18.90;3.03;;;;;;;-144.05;74.53;56995.38;4992821;28;20109;-84
2023/12/12 03:31:41;;;;;;;7.97;2.33;;;;;;;-144.05;74.81;57003.88;4992509;28;20045;-82
2023/12/12 03:34:10;;;;;;;13.95;2.95;;;;;;;-144.05;74.60;57014.50;4992570;28;20428;-82
2023/12/12 03:36:44;;;;;;;13.25;3.10;;;;;;;-144.05;74.35;57014.50;4993339;28;20480;-85
2023/12/12 03:39:11;;;;;;;14.18;2.50;;;;;;;-144.05;74.35;57016.63;5000356;28;20022;-88
2023/12/12 03:41:38;;;;;;;14.02;3.08;;;;;;;-144.05;74.26;57010.25;5001376;28;20178;-79
2023/12/12 03:44:05;;;;;;;11.73;2.35;;;;;;;-144.05;74.11;57018.75;5033810;28;20026;-83
2023/12/12 03:46:31;;;;;;;19.42;2.70;;;;;;;-144.05;74.06;57006.00;4994610;28;20038;-84
2023/12/12 03:48:57;;;;;;;13.68;2.65;;;;;;;-144.05;73.97;57018.75;4991877;28;20026;-82
2023/12/12 03:51:23;;;;;;;10.95;2.20;;;;;;;-144.05;74.02;57029.38;4992467;28;20046;-81
2023/12/12 03:53:50;;;;;;;11.88;2.65;;;;;;;-144.05;73.99;57031.50;4991918;28;20469;-83
2023/12/12 03:56:16;;;;;;;10.52;3.17;;;;;;;-144.05;74.69;56997.50;4992102;28;20400;-83
2023/12/12 03:58:42;;;;;;;8.10;2.50;;;;;;;-144.05;74.43;57003.88;5004900;28;20031;-83
2023/12/12 04:01:08;;;;;;;17.02;2.20;;;;;;;-144.05;74.12;57008.13;5007258;28;20030;-84
2023/12/12 04:03:35;;;;;;;8.55;2.60;;;;;;;-144.05;74.46;57006.00;5005926;28;20022;-83
2023/12/12 04:06:05;;;;;;;16.95;3.28;;;;;;;-144.05;75.02;57008.13;5016690;28;20031;-82
2023/12/12 04:08:32;;;;;;;17.63;3.45;;;;;;;-144.05;75.22;57006.00;5032986;28;20022;-81
2023/12/12 04:10:58;;;;;;;12.95;3.20;;;;;;;-144.05;75.46;57010.25;5017880;28;20116;-84
2023/12/12 04:13:25;;;;;;;14.40;2.83;;;;;;;-144.05;75.94;57006.00;5012003;28;20046;-85
2023/12/12 04:15:51;;;;;;;11.93;2.45;;;;;;;-144.05;75.63;57027.25;5010043;28;20057;-82
2023/12/12 04:18:18;;;;;;;11.35;2.78;;;;;;;-144.05;75.88;57001.75;4994182;28;20082;-83
2023/12/12 04:20:44;;;;;;;13.88;3.00;;;;;;;-144.05;76.77;56978.41;4992340;28;20117;-85
2023/12/12 04:23:10;;;;;;;22.63;4.10;;;;;;;-144.05;77.02;57018.75;4991993;28;20026;-85
2023/12/12 04:25:36;;;;;;;17.20;3.70;;;;;;;-144.05;76.72;57025.13;4991949;28;20045;-84
2023/12/12 04:28:03;;;;;;;17.33;3.00;;;;;;;-144.05;77.31;57042.13;4992880;28;20121;-84
2023/12/12 04:30:29;;;;;;;18.27;4.55;;;;;;;-144.05;77.41;57010.25;4993101;28;20026;-84
2023/12/12 04:32:55;;;;;;;16.90;3.40;;;;;;;-144.05;77.54;57008.13;4993128;28;20069;-84
2023/12/12 04:35:21;;;;;;;19.08;3.42;;;;;;;-144.05;77.76;56982.66;5007859;28;20027;-83
2023/12/12 04:37:47;;;;;;;18.98;4.05;;;;;;;-144.05;78.18;57023.00;5007998;28;20064;-84
2023/12/12 04:40:14;;;;;;;17.15;3.75;;;;;;;-144.05;78.53;56986.91;5007465;28;20126;-84
2023/12/12 04:42:42;;;;;;;15.52;3.75;;;;;;;-144.05;78.74;57010.25;5007714;28;20029;-86
2023/12/12 04:45:08;;;;;;;23.80;3.67;;;;;;;-144.05;79.15;57025.13;4991745;28;20040;-84
2023/12/12 04:47:35;;;;;;;18.67;3.80;;;;;;;-144.05;79.42;57035.75;4999387;28;20026;-80
2023/12/12 04:50:01;;;;;;;21.42;3.78;;;;;;;-144.05;79.00;57018.75;5007056;28;20092;-84
2023/12/12 04:52:27;;;;;;;22.92;4.38;;;7.40;99.90;;;-144.05;79.32;57018.75;4991831;28;20026;-83
2023/12/12 04:54:54;;;;;;;17.13;4.22;;;;;;;-144.05;79.42;57027.25;4993130;28;20117;-83
2023/12/12 04:57:20;;;;;;;26.33;5.50;;;;;;;-144.05;79.42;57018.75;4992158;28;20084;-84
2023/12/12 04:59:46;;;;;;;27.70;4.55;;;;;;;-144.05;79.85;57027.25;4992109;28;20034;-83
2023/12/12 05:02:13;;;;;;;17.92;3.83;;;;;;;-144.05;79.43;57014.50;5005614;28;20039;-84
2023/12/12 05:04:39;;;;;;;21.70;4.88;;;;;;;-144.05;79.10;57027.25;4990842;28;20034;-85
2023/12/12 05:07:05;;;;;;;21.95;5.00;;;;;;;-144.05;79.08;57001.75;5008425;28;20031;-82
2023/12/12 05:09:31;;;;;;;21.17;4.22;;;;;;;-144.05;79.25;57010.25;5008709;28;20137;-85
2023/12/12 05:11:57;;;;;;;15.95;3.88;;;;;;;-144.05;79.07;57006.00;5008374;28;20030;-81
2023/12/12 05:14:24;;;;;;;20.88;4.55;;;;;;;-144.05;79.72;57012.38;4991875;28;20030;-85
2023/12/12 05:16:50;;;;;;;22.33;4.05;;;;;;;-144.05;79.12;57029.38;5008373;28;20395;-84
2023/12/12 05:19:16;;;;;;;22.05;5.18;;;;;;;-144.05;79.65;57006.00;5005234;28;20046;-84
2023/12/12 05:21:42;;;;;;;17.00;3.67;;;;;;;-144.05;79.67;57006.00;4991907;28;20034;-85
2023/12/12 05:24:09;;;;;;;17.83;3.75;;;;;;;-144.05;79.32;57003.88;5008758;28;20145;-84
2023/12/12 05:26:35;;;;;;;24.67;4.30;;;;;;;-144.05;80.24;57010.25;5009071;28;20027;-83
2023/12/12 05:29:01;;;;;;;15.10;3.50;;;;;;;-144.05;80.10;57033.63;4992745;28;20030;-84
2023/12/12 05:31:27;;;;;;;15.05;4.10;;;;;;;-144.05;79.94;57018.75;4992758;28;20346;-84
2023/12/12 05:33:53;;;;;;;30.27;5.57;;;;;;;-144.05;79.92;57010.25;4992871;28;20099;-85
2023/12/12 05:36:20;;;;;;;21.02;4.43;;;;;;;-144.05;79.75;57008.13;5010275;28;20019;-77
2023/12/12 05:38:47;;;;;;;21.15;4.18;;;;;;;-144.05;79.93;57010.25;5015777;28;20034;-84
2023/12/12 05:41:14;;;;;;;25.30;5.05;;;;;;;-144.05;80.29;57029.38;5009084;28;20137;-83
2023/12/12 05:43:40;;;;;;;15.63;4.72;;;;;;;-144.05;80.57;57014.50;4990790;28;20396;-83
2023/12/12 05:46:06;;;;;;;24.40;5.38;;;;;;;-144.05;80.34;57010.25;4993531;28;20042;-84
2023/12/12 05:48:32;;;;;;;17.83;5.03;;;;;;;-144.05;80.57;56993.25;5008225;28;20453;-84
2023/12/12 05:50:59;;;;;;;24.70;5.85;;;;;;;-144.05;81.49;56989.00;5006939;28;20037;-84
2023/12/12 05:53:26;;;;;;;25.17;4.70;;;;;;;-144.05;81.20;57006.00;4992511;28;20041;-85
2023/12/12 05:55:55;;;;;;;24.17;4.82;;;;;;;-144.05;81.71;57014.50;4993729;28;20023;-82
2023/12/12 05:58:22;;;;;;;19.08;4.68;;;;;;;-144.05;82.20;57023.00;4993196;28;20031;-85
2023/12/12 06:00:51;;;;;;;24.08;5.20;;;;;;;-144.05;82.01;57018.75;5009003;28;20574;-83
2023/12/12 06:03:18;;;;;;;36.15;5.80;;;;;;;-144.05;81.25;57033.63;4993184;28;20341;-82
2023/12/12 06:05:44;;;;;;;23.95;4.68;;;;;;;-144.05;81.34;57040.00;4996992;28;20023;-86
2023/12/12 06:08:11;;;;;;;24.30;5.40;;;;;;;-144.05;81.08;57012.38;4995717;28;20412;-86
2023/12/12 06:10:37;;;;;;;19.63;4.40;;;;;;;-144.05;81.24;57008.13;4996520;28;20026;-87
2023/12/12 06:13:04;;;;;;;21.92;5.22;;;;;;;-144.05;81.22;57035.75;4996394;28;20416;-85
2023/12/12 06:15:36;;;;;;;25.45;5.22;;;;;;;-144.05;82.21;56989.00;4995039;28;20503;-85
2023/12/12 06:18:02;;;;;;;29.08;5.43;;;;;;;-144.05;81.77;57042.13;4987316;28;20042;-84
2023/12/12 06:20:30;;;;;;;23.98;5.35;;;;;;;-144.05;81.85;57027.25;4997147;28;20034;-85
2023/12/12 06:22:56;;;;;;;23.90;5.38;;;;;;;-144.05;81.67;57023.00;4995603;28;20520;-83
2023/12/12 06:25:23;;;;;;;22.83;5.32;;;;;;;-144.05;81.39;57006.00;5018181;28;20464;-83
2023/12/12 06:27:49;;;;;;;27.63;5.10;;;;;;;-144.05;81.31;57029.38;4994929;28;20037;-84
2023/12/12 06:30:16;;;;;;;20.98;6.13;;;;;;;-144.05;82.35;57046.38;4995124;28;20034;-85
2023/12/12 06:32:42;;;;;;;23.52;5.85;;;;;;;-144.05;82.10;57035.75;4995199;28;20069;-84
2023/12/12 06:35:09;;;;;;;23.10;5.53;;;;;;;-144.05;81.66;57023.00;4996746;28;20421;-86
2023/12/12 06:37:35;;;;;;;26.98;4.80;;;;;;;-144.05;81.86;57031.50;4994956;28;20031;-83
2023/12/12 06:40:03;;;;;;;22.30;5.78;;;;;;;-144.05;81.73;57033.63;4996306;28;20093;-85
2023/12/12 06:42:30;;;;;;;28.23;5.88;;;;;;;-144.05;81.89;57014.50;4993981;28;20035;-84
2023/12/12 06:44:56;;;;;;;22.45;6.00;;;;;;;-144.05;82.07;57023.00;4994958;28;20393;-83
2023/12/12 06:47:22;;;;;;;21.88;5.20;;;7.90;99.90;;;-144.05;81.62;57014.50;4994467;28;20026;-84
2023/12/12 06:49:49;;;;;;;22.95;6.07;;;;;;;-144.05;81.92;57012.38;5010689;28;20038;-85
2023/12/12 06:52:16;;;;;;;26.20;6.05;;;;;;;-144.05;82.04;57027.25;5010913;28;20035;-83
2023/12/12 06:54:42;;;;;;;27.92;7.07;;;;;;;-144.05;82.27;57020.88;4995948;28;20034;-83
2023/12/12 06:57:08;;;;;;;30.73;7.00;;;;;;;-144.05;82.41;57029.38;4993927;28;20053;-84
2023/12/12 06:59:34;;;;;;;27.17;6.53;;;;;;;-144.05;82.38;57027.25;4995881;28;20065;-85
2023/12/12 07:02:01;;;;;;;21.63;6.75;;;;;;;-144.05;82.26;57008.13;4987775;28;20057;-84
2023/12/12 07:04:28;;;;;;;16.75;6.43;;;;;;;-144.05;82.54;57027.25;4995292;28;20394;-82
2023/12/12 07:06:54;;;;;;;32.70;6.35;;;;;;;-144.05;82.76;57025.13;5011665;28;20033;-83
2023/12/12 07:09:20;;;;;;;38.67;6.65;;;;;;;-144.05;82.27;57027.25;4994638;28;20026;-84
2023/12/12 07:11:46;;;;;;;33.45;6.38;;;;;;;-144.05;83.04;56986.91;4996294;28;20037;-83
2023/12/12 07:14:13;;;;;;;31.10;6.28;;;;;;;-144.05;84.17;57018.75;4995623;28;20079;-85
2023/12/12 07:16:39;;;;;;;33.00;6.30;;;;;;;-144.05;83.57;56995.38;4995648;28;20090;-82
2023/12/12 07:19:07;;;;;;;19.65;6.05;;;;;;;-144.05;82.48;57016.63;5008003;28;20085;-83
2023/12/12 07:21:41;;;;;;;17.33;5.32;;;8.70;99.90;;;-144.05;82.14;57014.50;5007092;28;20031;-83
2023/12/12 07:24:08;;;;;;;18.52;5.50;;;;;;;-144.05;82.10;57033.63;4993958;28;20030;-84
2023/12/12 07:26:34;;;;;;;26.90;5.18;;;;;;;-144.05;81.49;57008.13;4991606;28;20057;-83
2023/12/12 07:29:00;;;;;;;22.35;4.93;;;;;;;-144.05;81.06;57020.88;4995937;28;20188;-83
2023/12/12 07:31:26;;;;;;;25.10;5.05;;;;;;;-144.05;80.48;57020.88;5004865;28;20038;-82
2023/12/12 07:33:53;;;;;;;18.52;5.03;;;;;;;-144.05;79.98;57003.88;5015195;28;20109;-85
2023/12/12 07:36:19;;;;;;;25.02;4.55;;;;;;;-144.05;80.07;57020.88;4991871;28;20485;-85
2023/12/12 07:38:45;;;;;;;17.90;5.10;;;;;;;-144.05;79.76;57006.00;5008515;28;20030;-83
2023/12/12 07:41:12;;;;;;;27.38;5.55;;;;;;;-144.05;79.90;57027.25;4995589;28;20042;-84
2023/12/12 07:43:38;;;;;;;24.77;5.20;;;8.60;99.90;;;-144.05;79.52;56984.78;4993727;28;20034;-82
2023/12/12 07:46:05;;;;;;;18.77;5.00;;;;;;;-144.05;79.64;57010.25;5011053;28;20546;-85
2023/12/12 07:48:31;;;;;;;14.65;4.00;;;;;;;-144.05;79.52;57010.25;5011075;28;20042;-85
2023/12/12 07:50:58;;;;;;;23.13;5.13;;;;;;;-144.05;79.95;57006.00;4993866;28;20114;-84
2023/12/12 07:53:24;;;;;;;17.20;4.35;;;;;;;-144.05;79.62;56997.50;4994473;28;20065;-86
2023/12/12 07:55:51;;;;;;;20.55;4.80;;;;;;;-144.05;79.43;57008.13;4994004;28;20026;-83
2023/12/12 07:58:18;;;;;;;21.92;6.63;;;7.70;99.90;;;-144.05;79.23;56993.25;5011196;28;20034;-83
2023/12/12 08:00:44;;;;;;;27.05;4.88;;;;;;;-144.05;78.94;57023.00;5010490;28;20392;-86
2023/12/12 08:03:10;;;;;;;30.58;7.85;;;;;;;-144.05;78.54;56965.66;4994020;28;20035;-84
2023/12/12 08:05:37;;;;;;;24.02;5.55;;;;;;;-144.05;78.53;57012.38;4995372;28;20204;-85
2023/12/12 08:08:04;;;;;;;18.33;5.22;;;;;;;-144.05;78.18;57006.00;4994434;28;20121;-83
2023/12/12 08:10:31;;;;;;;24.02;4.93;;;;;;;-144.05;77.88;57001.75;4994334;28;20030;-82
2023/12/12 08:12:57;;;;;;;19.20;5.18;;;;;;;-144.05;77.64;57008.13;4994952;28;20033;-83
2023/12/12 08:15:24;;;;;;;16.73;5.10;;;;;;;-144.05;77.84;56993.25;5023600;28;20068;-83
2023/12/12 08:17:50;;;;;;;19.50;4.45;;;;;;;-144.05;77.28;57010.25;5024969;28;20038;-87
2023/12/12 08:20:17;;;;;;;15.98;3.80;;;;;;;-144.05;77.21;57020.88;5016076;28;20045;-83
2023/12/12 08:22:43;;;;;;;20.63;4.55;;;;;;;-144.05;76.99;57027.25;5016501;28;20088;-83
2023/12/12 08:25:10;;;;;;;19.60;4.40;;;;;;;-144.05;76.29;57016.63;5014371;28;20049;-84
2023/12/12 08:27:37;;;;;;;17.98;3.72;;;;;;;-144.05;76.20;57016.63;5020556;28;20056;-85
2023/12/12 08:30:05;;;;;;;17.02;3.72;;;;;;;-144.05;75.81;57016.63;4993985;28;20037;-85
2023/12/12 08:32:31;;;;;;;20.80;3.63;;;;;;;-144.05;76.56;57012.38;5009577;28;20030;-84
2023/12/12 08:34:57;;;;;;;18.08;4.00;;;;;;;-144.05;76.60;56986.91;5010657;28;20429;-84
2023/12/12 08:37:24;;;;;;;19.48;4.38;;;;;;;-144.05;76.57;57012.38;5006392;28;20066;-82
2023/12/12 08:39:50;;;;;;;18.20;4.00;;;;;;;-144.05;76.52;57006.00;4994052;28;20035;-83
2023/12/12 08:42:16;;;;;;;16.35;3.65;;;;;;;-144.05;76.62;57014.50;4993067;28;20036;-84
2023/12/12 08:44:44;;;;;;;23.05;4.05;;;;;;;-144.05;76.14;57042.13;4992973;28;20078;-84
2023/12/12 08:47:10;;;;;;;25.63;4.05;;;;;;;-144.05;76.14;56978.41;4993930;28;20026;-84
2023/12/12 08:49:38;;;;;;;15.95;4.10;;;;;;;-144.05;76.66;57023.00;4993732;28;20041;-83
2023/12/12 08:52:08;;;;;;;27.92;4.68;;;;;;;-144.05;76.15;56991.13;4994141;28;20045;-84
2023/12/12 08:54:38;;;;;;;13.90;3.45;;;7.90;99.90;;;-144.05;76.13;56978.41;4994212;28;20069;-83
2023/12/12 08:57:05;;;;;;;16.38;3.13;;;;;;;-144.05;75.91;56999.63;4986678;28;20034;-87
2023/12/12 08:59:31;;;;;;;30.48;4.60;;;;;;;-144.05;75.86;57008.13;4994830;28;20039;-82
2023/12/12 09:01:58;;;;;;;19.77;3.97;;;;;;;-144.05;75.84;57020.88;4989981;28;20050;-85
2023/12/12 09:04:24;;;;;;;25.25;3.65;;;;;;;-144.05;74.90;56952.91;4985546;28;20485;-84
2023/12/12 09:06:51;;;;;;;18.92;3.58;;;;;;;-144.05;74.68;57001.75;5008977;28;20041;-82
2023/12/12 09:09:17;;;;;;;26.63;5.22;;;;;;;-144.05;74.58;57006.00;5009877;28;20388;-81
2023/12/12 09:11:46;;;;;;;20.30;3.95;;;10.10;99.90;;;-144.05;74.24;56976.28;5009258;28;20042;-81
2023/12/12 09:14:13;;;;;;;15.38;3.63;;;;;;;-144.05;74.09;57010.25;5009754;28;20113;-82
2023/12/12 09:16:39;;;;;;;22.52;3.92;;;;;;;-144.05;73.80;57008.13;4994287;28;20139;-82
2023/12/12 09:19:06;;;;;;;18.25;3.65;;;;;;;-144.05;73.88;57003.88;4993531;28;20029;-86
2023/12/12 09:21:32;;;;;;;16.20;3.95;;;;;;;-144.05;73.72;56989.00;5009024;28;20031;-82
2023/12/12 09:23:58;;;;;;;18.17;4.70;;;;;;;-144.05;73.93;57010.25;5020636;28;20038;-78
2023/12/12 09:26:25;;;;;;;15.13;3.50;;;;;;;-144.05;72.98;57010.25;5012246;28;20126;-84
2023/12/12 09:28:51;;;;;;;16.27;3.35;;;;;;;-144.05;72.93;57012.38;4993271;28;20022;-85
2023/12/12 09:31:26;;;;;;;17.20;3.28;;;10.70;99.90;;;-144.05;72.28;57008.13;4994162;28;20496;-82
2023/12/12 09:33:53;;;;;;;15.87;2.97;;;;;;;-144.05;72.28;56989.00;5009028;28;20034;-83
2023/12/12 09:36:19;;;;;;;17.25;2.90;;;;;;;-144.05;71.97;57018.75;5009433;28;20038;-82
2023/12/12 09:38:45;;;;;;;17.52;2.97;;;;;;;-144.05;71.94;56999.63;5010585;28;20026;-82
2023/12/12 09:41:22;;;;;;;12.60;2.65;;;10.10;99.90;;;-144.05;71.79;56972.03;4996285;28;20035;-84
2023/12/12 09:43:50;;;;;;;25.42;3.13;;;10.40;99.90;;;-144.05;70.83;56984.78;5012838;28;20026;-82
2023/12/12 09:46:19;;;;;;;19.85;4.07;;;;;;;-144.05;70.38;56976.28;5012761;28;20030;-84
2023/12/12 09:48:48;;;;;;;13.45;3.75;;;;;;;-144.05;70.00;56959.28;5012068;28;20030;-83
2023/12/12 09:51:14;;;;;;;14.55;3.17;;;;;;;-144.05;69.91;56991.13;4996215;28;20038;-82
2023/12/12 09:53:48;;;;;;;20.20;3.70;;;9.60;99.90;;;-144.05;70.20;56946.53;4997419;28;20042;-84
2023/12/12 09:56:18;;;;;;;17.85;3.70;;;9.80;99.90;;;-144.05;70.28;56989.00;4997482;28;20485;-82
2023/12/12 09:58:48;;;;;;;16.35;3.13;;;9.90;99.90;;;-144.05;69.67;57001.75;4997359;28;20031;-83
2023/12/12 10:01:16;;;;;;;11.57;2.83;;;;;;;-144.05;69.26;56991.13;4996408;28;20515;-83
2023/12/12 10:03:43;;;;;;;15.70;3.63;;;;;;;-144.05;68.99;56978.41;5004147;28;20034;-83
2023/12/12 10:06:13;;;;;;;11.60;2.63;;;10.50;99.90;;;-144.05;67.90;56999.63;5012703;28;20638;-83
2023/12/12 10:08:40;;;;;;;7.68;2.60;;;;;;;-144.05;67.76;56965.66;4997229;28;20031;-81
2023/12/12 10:11:09;;;;;;;13.55;3.13;;;;;;;-144.05;67.97;56989.00;5013740;28;20346;-83
2023/12/12 10:13:58;;;;;;;19.58;3.13;;;11.10;99.90;;;-144.05;67.66;57008.13;5010471;28;20031;-82
2023/12/12 10:16:30;;;;;;;8.68;2.42;;;12.60;99.90;;;-144.05;66.43;56967.78;4997428;28;20093;-82
2023/12/12 10:19:01;;;;;;;9.85;2.58;;;12.00;99.90;;;-144.05;63.57;56984.78;4998548;28;20022;-81
2023/12/12 10:21:28;;;;;;;13.13;2.40;;;;;;;-144.05;63.31;56976.28;5013983;28;20105;-82
2023/12/12 10:23:56;;;;;;;11.93;2.65;;;13.00;99.90;;;-144.05;63.18;56997.50;5013981;28;20122;-83
2023/12/12 10:26:31;;;;;;;17.92;3.25;;;;;;;-144.05;62.73;56976.28;5012934;28;20056;-82
2023/12/12 10:29:00;;;;;;;14.10;3.08;;;13.30;99.90;;;-144.05;63.45;56984.78;4998164;28;20397;-86
2023/12/12 10:31:28;;;;;;;14.85;2.13;;;;;;;-144.05;63.32;56980.53;5015797;28;20125;-87
2023/12/12 10:33:56;;;;;;;12.40;2.47;;;;;;;-144.05;63.52;56944.41;4997861;28;20084;-85
2023/12/12 10:36:24;;;;;;;13.43;2.47;;;;;;;-144.05;62.31;56997.50;4999841;28;20400;-82
2023/12/12 10:38:50;;;;;;;9.85;2.60;;;;;;;-144.05;61.06;56989.00;5010712;28;20035;-83
2023/12/12 10:41:19;;;;;;;13.35;2.58;;;;;;;-144.05;60.51;57008.13;4995624;28;20081;-83
2023/12/12 10:43:47;;;;;;;10.35;2.75;;;13.10;99.90;;;-144.05;60.45;56982.66;4997311;28;20384;-83
2023/12/12 10:46:17;;;;;;;10.00;2.65;;;;;;;-144.05;60.49;56959.28;5013106;28;20038;-85
2023/12/12 10:48:52;;;;;;;11.05;2.20;;;13.10;99.90;;;-144.05;60.46;56980.53;4996840;28;20453;-84
2023/12/12 10:51:19;;;;;;;17.80;3.23;;;;;;;-144.05;60.10;56976.28;4997218;28;20019;-82
2023/12/12 10:53:51;;;;;;;9.10;1.83;;;12.70;99.90;;;-144.05;59.06;56969.91;4996057;28;20026;-83
2023/12/12 10:56:19;;;;;;;7.57;2.17;;;;;;;-144.05;58.36;56986.91;4997712;28;20027;-82
2023/12/12 10:58:48;;;;;;;9.18;2.15;;;;;;;-144.05;57.72;56950.78;4997574;28;20030;-84
2023/12/12 11:01:15;;;;;;;10.88;2.40;;;12.70;99.90;;;-144.05;58.02;56965.66;5004814;28;20136;-82